createdAt,value
2022-11-12T00:01:13.915Z,20.08
2022-11-12T00:03:42.240Z,19.08
2022-11-12T00:06:09.962Z,20.20
2022-11-12T00:08:37.945Z,19.67
2022-11-12T00:11:06.094Z,22.02
2022-11-12T00:13:33.762Z,19.23
2022-11-12T00:16:01.373Z,17.75
2022-11-12T00:18:29.301Z,19.95
2022-11-12T00:20:57.245Z,21.50
2022-11-12T00:23:24.914Z,18.20
2022-11-12T00:26:02.989Z,19.20
2022-11-12T00:28:36.352Z,18.92
2022-11-12T00:31:10.545Z,22.08
2022-11-12T00:33:42.325Z,19.10
2022-11-12T00:36:10.851Z,21.77
2022-11-12T00:38:38.513Z,22.80
2022-11-12T00:41:06.370Z,22.75
2022-11-12T00:43:34.046Z,21.67
2022-11-12T00:46:01.678Z,17.55
2022-11-12T00:48:29.478Z,22.65
2022-11-12T00:51:10.145Z,19.05
2022-11-12T00:53:37.815Z,21.08
2022-11-12T00:56:07.686Z,19.73
2022-11-12T00:58:37.205Z,20.37
2022-11-12T01:01:15.669Z,20.33
2022-11-12T01:03:43.968Z,18.42
2022-11-12T01:06:19.892Z,21.20
2022-11-12T01:08:49.426Z,21.87
2022-11-12T01:11:26.494Z,19.90
2022-11-12T01:14:00.528Z,20.52
2022-11-12T01:16:32.218Z,21.15
2022-11-12T01:19:01.635Z,22.50
2022-11-12T01:21:31.534Z,21.40
2022-11-12T01:24:00.737Z,20.92
2022-11-12T01:26:32.051Z,22.55
2022-11-12T01:28:59.911Z,19.83
2022-11-12T01:31:30.162Z,22.05
2022-11-12T01:34:00.487Z,19.77
2022-11-12T01:36:29.802Z,22.52
2022-11-12T01:38:57.598Z,19.80
2022-11-12T01:41:36.096Z,24.10
2022-11-12T01:44:17.378Z,23.15
2022-11-12T01:47:03.616Z,23.80
2022-11-12T01:49:57.503Z,23.80
2022-11-12T01:52:30.976Z,18.20
2022-11-12T01:55:08.753Z,22.55
2022-11-12T01:57:42.643Z,19.75
2022-11-12T02:00:13.556Z,19.60
2022-11-12T02:02:43.599Z,21.02
2022-11-12T02:05:13.120Z,21.15
2022-11-12T02:07:43.276Z,17.95
2022-11-12T02:10:11.380Z,19.17
2022-11-12T02:12:58.570Z,18.60
2022-11-12T02:15:27.412Z,18.12
2022-11-12T02:17:55.152Z,16.77
2022-11-12T02:20:22.929Z,19.10
2022-11-12T02:22:50.621Z,19.40
2022-11-12T02:25:22.029Z,18.60
2022-11-12T02:27:52.968Z,17.73
2022-11-12T02:30:21.301Z,19.30
2022-11-12T02:32:48.927Z,21.00
2022-11-12T02:35:16.624Z,20.65
2022-11-12T02:37:44.248Z,20.58
2022-11-12T02:40:12.063Z,20.37
2022-11-12T02:42:39.629Z,22.70
2022-11-12T02:45:07.587Z,19.62
2022-11-12T02:47:35.261Z,22.50
2022-11-12T02:50:02.943Z,17.90
2022-11-12T02:52:30.551Z,19.87
2022-11-12T02:54:58.237Z,22.35
2022-11-12T02:57:25.942Z,19.98
2022-11-12T02:59:53.521Z,23.38
2022-11-12T03:02:21.147Z,21.58
2022-11-12T03:04:49.673Z,18.77
2022-11-12T03:07:17.702Z,20.35
2022-11-12T03:09:45.347Z,20.23
2022-11-12T03:12:13.022Z,22.52
2022-11-12T03:14:40.613Z,18.90
2022-11-12T03:17:08.277Z,21.87
2022-11-12T03:19:35.967Z,21.12
2022-11-12T03:22:03.575Z,20.83
2022-11-12T03:24:31.176Z,20.27
2022-11-12T03:26:59.744Z,17.58
2022-11-12T03:29:28.012Z,18.25
2022-11-12T03:31:55.638Z,22.95
2022-11-12T03:34:23.240Z,21.35
2022-11-12T03:36:50.973Z,24.63
2022-11-12T03:39:18.620Z,20.85
2022-11-12T03:41:46.281Z,23.58
2022-11-12T03:44:13.924Z,25.25
2022-11-12T03:46:44.160Z,24.65
2022-11-12T03:49:12.317Z,25.25
2022-11-12T03:51:39.935Z,24.60
2022-11-12T03:54:07.733Z,22.13
2022-11-12T03:56:35.385Z,25.08
2022-11-12T03:59:03.162Z,24.12
2022-11-12T04:01:30.808Z,24.05
2022-11-12T04:03:58.795Z,20.40
2022-11-12T04:06:45.083Z,23.42
2022-11-12T04:09:12.920Z,21.73
2022-11-12T04:11:40.574Z,21.00
2022-11-12T04:14:08.247Z,22.27
2022-11-12T04:16:54.407Z,21.70
2022-11-12T04:19:40.513Z,24.33
2022-11-12T04:22:10.807Z,19.83
2022-11-12T04:24:59.755Z,25.00
2022-11-12T04:27:35.269Z,22.25
2022-11-12T04:30:32.182Z,20.20
2022-11-12T04:32:59.856Z,19.30
2022-11-12T04:35:28.506Z,26.35
2022-11-12T04:37:56.396Z,23.23
2022-11-12T04:40:44.872Z,24.02
2022-11-12T04:43:36.953Z,24.67
2022-11-12T04:46:06.294Z,22.13
2022-11-12T04:48:34.357Z,22.02
2022-11-12T04:51:04.043Z,21.62
2022-11-12T04:53:31.948Z,25.00
2022-11-12T04:56:00.695Z,24.98
2022-11-12T04:58:28.674Z,24.27
2022-11-12T05:00:56.567Z,25.55
2022-11-12T05:03:24.238Z,25.45
2022-11-12T05:05:51.901Z,21.27
2022-11-12T05:08:19.516Z,22.77
2022-11-12T05:10:47.119Z,21.12
2022-11-12T05:13:14.751Z,21.42
2022-11-12T05:15:46.384Z,23.20
2022-11-12T05:18:14.020Z,22.20
2022-11-12T05:20:41.690Z,21.75
2022-11-12T05:23:09.353Z,21.20
2022-11-12T05:25:37.402Z,21.33
2022-11-12T05:28:07.011Z,20.42
2022-11-12T05:30:35.073Z,18.05
2022-11-12T05:33:02.690Z,22.92
2022-11-12T05:35:30.283Z,18.73
2022-11-12T05:37:57.903Z,19.65
2022-11-12T05:40:25.517Z,22.30
2022-11-12T05:42:53.180Z,21.90
2022-11-12T05:45:20.814Z,19.95
2022-11-12T05:47:49.064Z,18.95
2022-11-12T05:50:16.749Z,24.05
2022-11-12T05:52:44.434Z,22.67
2022-11-12T05:55:12.102Z,22.23
2022-11-12T05:57:39.728Z,23.45
2022-11-12T06:00:08.172Z,22.23
2022-11-12T06:02:35.840Z,22.33
2022-11-12T06:05:03.500Z,25.35
2022-11-12T06:07:31.179Z,20.48
2022-11-12T06:09:58.799Z,21.70
2022-11-12T06:12:26.398Z,24.87
2022-11-12T06:14:54.007Z,22.23
2022-11-12T06:17:22.549Z,20.83
2022-11-12T06:19:50.188Z,23.27
2022-11-12T06:22:17.776Z,27.65
2022-11-12T06:24:45.421Z,20.15
2022-11-12T06:27:13.060Z,23.38
2022-11-12T06:29:40.744Z,19.65
2022-11-12T06:32:08.345Z,20.52
2022-11-12T06:34:35.965Z,23.10
2022-11-12T06:37:03.576Z,21.08
2022-11-12T06:39:31.231Z,20.90
2022-11-12T06:41:58.921Z,24.10
2022-11-12T06:44:26.659Z,21.77
2022-11-12T06:46:54.318Z,19.50
2022-11-12T06:49:21.966Z,23.77
2022-11-12T06:51:51.647Z,21.58
2022-11-12T06:54:19.318Z,19.87
2022-11-12T06:56:46.940Z,21.75
2022-11-12T06:59:14.650Z,24.12
2022-11-12T07:01:42.355Z,22.90
2022-11-12T07:04:11.721Z,22.60
2022-11-12T07:06:39.489Z,21.30
2022-11-12T07:09:07.411Z,18.55
2022-11-12T07:11:35.223Z,21.62
2022-11-12T07:14:02.915Z,21.75
2022-11-12T07:16:30.490Z,22.55
2022-11-12T07:18:58.110Z,21.40
2022-11-12T07:21:26.061Z,22.52
2022-11-12T07:23:53.989Z,20.35
2022-11-12T07:26:23.868Z,25.65
2022-11-12T07:28:53.582Z,22.27
2022-11-12T07:31:21.894Z,19.55
2022-11-12T07:33:50.628Z,20.05
2022-11-12T07:36:20.518Z,21.77
2022-11-12T07:38:48.862Z,19.08
2022-11-12T07:41:19.483Z,22.87
2022-11-12T07:43:49.323Z,18.58
2022-11-12T07:46:25.253Z,21.02
2022-11-12T07:48:54.250Z,17.65
2022-11-12T07:51:27.977Z,22.33
2022-11-12T07:53:59.502Z,19.15
2022-11-12T07:56:29.736Z,19.15
2022-11-12T07:58:57.455Z,20.02
2022-11-12T08:01:41.765Z,23.73
2022-11-12T08:04:11.547Z,20.25
2022-11-12T08:06:39.970Z,21.62
2022-11-12T08:09:09.607Z,21.65
2022-11-12T08:11:37.301Z,18.77
2022-11-12T08:14:04.946Z,21.83
2022-11-12T08:16:32.594Z,21.10
2022-11-12T08:19:00.393Z,20.48
2022-11-12T08:21:28.121Z,21.70
2022-11-12T08:23:55.767Z,19.87
2022-11-12T08:26:23.593Z,16.35
2022-11-12T08:28:51.267Z,17.25
2022-11-12T08:31:22.161Z,18.37
2022-11-12T08:33:50.254Z,18.55
2022-11-12T08:36:19.343Z,16.52
2022-11-12T08:38:47.297Z,15.73
2022-11-12T08:41:16.675Z,15.93
2022-11-12T08:43:44.486Z,15.82
2022-11-12T08:46:12.144Z,19.52
2022-11-12T08:48:41.222Z,14.82
2022-11-12T08:51:09.338Z,16.20
2022-11-12T08:53:37.246Z,13.25
2022-11-12T08:56:05.173Z,13.38
2022-11-12T08:58:32.824Z,15.07
2022-11-12T09:01:08.936Z,16.70
2022-11-12T09:03:36.588Z,15.27
2022-11-12T09:06:05.986Z,13.40
2022-11-12T09:08:36.339Z,14.32
2022-11-12T09:11:04.914Z,13.05
2022-11-12T09:13:32.977Z,14.27
2022-11-12T09:16:02.779Z,12.77
2022-11-12T09:18:31.023Z,14.48
2022-11-12T09:21:05.854Z,13.10
2022-11-12T09:23:35.841Z,16.62
2022-11-12T09:26:04.692Z,12.98
2022-11-12T09:28:32.743Z,14.85
2022-11-12T09:31:00.750Z,15.10
2022-11-12T09:33:32.406Z,14.00
2022-11-12T09:36:04.627Z,14.70
2022-11-12T09:38:32.939Z,13.80
2022-11-12T09:41:12.174Z,13.73
2022-11-12T09:43:53.249Z,14.05
2022-11-12T09:46:32.356Z,12.63
2022-11-12T09:49:23.055Z,13.20
2022-11-12T09:52:02.525Z,12.07
2022-11-12T09:54:33.780Z,13.23
2022-11-12T09:57:02.148Z,12.48
2022-11-12T09:59:35.642Z,12.10
2022-11-12T10:02:46.679Z,13.13
2022-11-12T10:05:17.215Z,13.75
2022-11-12T10:07:58.532Z,12.63
2022-11-12T10:10:56.748Z,15.52
2022-11-12T10:13:59.682Z,15.55
2022-11-12T10:16:45.769Z,11.18
2022-11-12T10:19:13.336Z,13.50
2022-11-12T10:22:19.453Z,14.50
2022-11-12T10:24:49.480Z,12.40
2022-11-12T10:27:22.937Z,12.80
2022-11-12T10:30:00.528Z,12.48
2022-11-12T10:32:28.715Z,12.88
2022-11-12T10:34:56.376Z,13.62
2022-11-12T10:37:42.582Z,10.95
2022-11-12T10:40:40.985Z,11.12
2022-11-12T10:43:17.648Z,14.32
2022-11-12T10:45:47.114Z,12.75
2022-11-12T10:48:41.125Z,13.52
2022-11-12T10:51:23.055Z,12.48
2022-11-12T10:53:50.689Z,21.70
2022-11-12T10:56:30.824Z,27.27
2022-11-12T10:59:16.655Z,23.35
2022-11-12T11:01:46.488Z,22.08
2022-11-12T11:04:30.284Z,32.63
2022-11-12T11:07:08.395Z,15.32
2022-11-12T11:09:36.051Z,13.93
2022-11-12T11:12:03.799Z,15.25
2022-11-12T11:14:34.145Z,14.43
2022-11-12T11:17:09.615Z,24.20
2022-11-12T11:19:40.281Z,24.90
2022-11-12T11:22:20.286Z,18.67
2022-11-12T11:25:15.793Z,20.45
2022-11-12T11:28:11.085Z,22.80
2022-11-12T11:30:49.917Z,17.92
2022-11-12T11:33:36.057Z,16.33
2022-11-12T11:36:23.175Z,14.77
2022-11-12T11:39:05.604Z,18.52
2022-11-12T11:41:35.895Z,23.62
2022-11-12T11:44:34.639Z,15.57
2022-11-12T11:47:38.576Z,15.63
2022-11-12T11:50:34.349Z,16.75
2022-11-12T11:53:44.733Z,13.85
2022-11-12T11:56:28.226Z,15.50
2022-11-12T11:59:47.674Z,14.23
2022-11-12T12:02:44.595Z,16.55
2022-11-12T12:05:24.243Z,17.12
2022-11-12T12:08:18.375Z,16.35
2022-11-12T12:11:13.820Z,15.82
2022-11-12T12:14:07.413Z,14.35
2022-11-12T12:16:47.288Z,16.50
2022-11-12T12:19:36.201Z,17.10
2022-11-12T12:22:06.840Z,17.08
2022-11-12T12:24:46.167Z,16.77
2022-11-12T12:27:21.265Z,15.68
2022-11-12T12:29:54.828Z,14.55
2022-11-12T12:32:28.901Z,16.02
2022-11-12T12:35:38.005Z,14.68
2022-11-12T12:38:15.531Z,13.30
2022-11-12T12:41:00.041Z,14.82
2022-11-12T12:43:40.559Z,14.75
2022-11-12T12:46:12.116Z,13.05
2022-11-12T12:48:43.947Z,17.23
2022-11-12T12:51:11.982Z,14.00
2022-11-12T12:53:39.857Z,14.77
2022-11-12T12:56:28.795Z,15.57
2022-11-12T12:58:56.540Z,15.35
2022-11-12T13:01:24.154Z,17.98
2022-11-12T13:03:54.988Z,15.48
2022-11-12T13:06:23.007Z,21.87
2022-11-12T13:08:58.241Z,14.43
2022-11-12T13:12:02.575Z,15.98
2022-11-12T13:14:35.847Z,15.95
2022-11-12T13:17:04.873Z,16.37
2022-11-12T13:19:36.344Z,16.25
2022-11-12T13:22:19.339Z,14.77
2022-11-12T13:25:25.994Z,15.70
2022-11-12T13:27:53.560Z,12.95
2022-11-12T13:30:23.934Z,13.30
2022-11-12T13:32:51.652Z,12.80
2022-11-12T13:35:25.055Z,12.35
2022-11-12T13:38:13.862Z,12.10
2022-11-12T13:40:47.957Z,11.40
2022-11-12T13:43:40.117Z,12.73
2022-11-12T13:46:07.709Z,11.82
2022-11-12T13:48:40.819Z,14.68
2022-11-12T13:51:14.322Z,13.30
2022-11-12T13:53:41.998Z,12.82
2022-11-12T13:56:12.584Z,10.65
2022-11-12T13:58:40.953Z,11.27
2022-11-12T14:01:09.076Z,12.23
2022-11-12T14:03:42.939Z,10.23
2022-11-12T14:06:30.584Z,10.57
2022-11-12T14:09:04.282Z,10.48
2022-11-12T14:12:05.731Z,10.63
2022-11-12T14:14:46.437Z,9.52
2022-11-12T14:17:32.721Z,9.68
2022-11-12T14:20:28.636Z,7.82
2022-11-12T14:22:56.391Z,9.55
2022-11-12T14:25:28.759Z,9.90
2022-11-12T14:27:57.463Z,8.15
2022-11-12T14:30:26.424Z,9.57
2022-11-12T14:32:59.640Z,9.35
2022-11-12T14:35:40.128Z,8.93
2022-11-12T14:38:10.891Z,9.43
2022-11-12T14:40:44.463Z,8.65
2022-11-12T14:43:27.345Z,8.52
2022-11-12T14:45:56.967Z,8.38
2022-11-12T14:48:24.992Z,10.18
2022-11-12T14:51:04.030Z,9.05
2022-11-12T14:53:36.048Z,9.18
2022-11-12T14:56:07.977Z,9.95
2022-11-12T14:58:36.401Z,10.00
2022-11-12T15:04:20.484Z,7.97
2022-11-12T15:06:56.172Z,6.93
2022-11-12T15:09:53.545Z,11.77
2022-11-12T15:12:27.956Z,8.50
2022-11-12T15:15:08.408Z,8.20
2022-11-12T15:17:38.238Z,7.50
2022-11-12T15:20:23.964Z,8.07
2022-11-12T15:22:53.349Z,6.65
2022-11-12T15:25:31.292Z,6.85
2022-11-12T15:28:23.244Z,9.48
2022-11-12T15:31:27.439Z,7.15
2022-11-12T15:33:57.365Z,8.10
2022-11-12T15:36:25.847Z,7.37
2022-11-12T15:38:56.646Z,8.90
2022-11-12T15:41:29.598Z,10.05
2022-11-12T15:43:58.361Z,10.20
2022-11-12T15:46:26.004Z,9.65
2022-11-12T15:48:56.157Z,10.07
2022-11-12T15:51:23.993Z,8.68
2022-11-12T15:53:51.926Z,12.37
2022-11-12T15:56:23.091Z,10.00
2022-11-12T15:58:50.766Z,9.45
2022-11-12T16:01:18.627Z,10.18
2022-11-12T16:03:46.289Z,8.00
2022-11-12T16:06:14.169Z,9.38
2022-11-12T16:08:41.832Z,9.07
2022-11-12T16:11:31.499Z,9.80
2022-11-12T16:13:59.173Z,8.63
2022-11-12T16:16:27.514Z,9.43
2022-11-12T16:18:55.404Z,8.48
2022-11-12T16:21:24.274Z,11.02
2022-11-12T16:23:51.865Z,10.15
2022-11-12T16:26:31.890Z,10.60
2022-11-12T16:28:59.684Z,11.00
2022-11-12T16:31:27.597Z,10.30
2022-11-12T16:33:55.244Z,9.77
2022-11-12T16:36:22.884Z,11.90
2022-11-12T16:38:50.506Z,12.15
2022-11-12T16:41:18.502Z,10.30
2022-11-12T16:43:46.200Z,9.18
2022-11-12T16:46:27.181Z,11.50
2022-11-12T16:48:55.327Z,11.10
2022-11-12T16:51:24.227Z,11.77
2022-11-12T16:53:51.965Z,8.68
2022-11-12T16:56:21.970Z,11.15
2022-11-12T16:58:50.694Z,10.15
2022-11-12T17:01:27.161Z,10.50
2022-11-12T17:03:56.724Z,10.52
2022-11-12T17:06:33.326Z,13.62
2022-11-12T17:09:01.129Z,14.15
2022-11-12T17:11:28.807Z,12.68
2022-11-12T17:13:56.483Z,14.68
2022-11-12T17:16:24.171Z,15.40
2022-11-12T17:18:55.427Z,14.25
2022-11-12T17:21:23.712Z,13.50
2022-11-12T17:23:52.065Z,12.40
2022-11-12T17:26:21.581Z,14.30
2022-11-12T17:28:54.027Z,10.52
2022-11-12T17:31:25.666Z,13.43
2022-11-12T17:33:54.704Z,14.50
2022-11-12T17:36:25.157Z,12.52
2022-11-12T17:39:00.230Z,10.57
2022-11-12T17:41:32.176Z,14.18
2022-11-12T17:44:01.490Z,13.50
2022-11-12T17:46:29.829Z,12.48
2022-11-12T17:48:58.006Z,11.27
2022-11-12T17:51:28.188Z,11.90
2022-11-12T17:53:56.228Z,11.70
2022-11-12T17:56:25.016Z,11.35
2022-11-12T17:58:53.576Z,11.82
2022-11-12T18:01:26.512Z,13.80
2022-11-12T18:03:56.270Z,15.45
2022-11-12T18:06:29.664Z,14.10
2022-11-12T18:09:09.239Z,15.80
2022-11-12T18:11:49.757Z,14.27
2022-11-12T18:14:17.972Z,16.17
2022-11-12T18:16:46.193Z,17.52
2022-11-12T18:19:14.084Z,15.15
2022-11-12T18:21:42.071Z,19.37
2022-11-12T18:24:16.103Z,17.33
2022-11-12T18:26:45.225Z,15.43
2022-11-12T18:29:13.622Z,15.45
2022-11-12T18:31:41.744Z,15.70
2022-11-12T18:34:14.589Z,16.90
2022-11-12T18:36:42.344Z,16.87
2022-11-12T18:39:10.181Z,15.85
2022-11-12T18:41:38.010Z,13.75
2022-11-12T18:44:05.845Z,16.80
2022-11-12T18:46:33.455Z,13.62
2022-11-12T18:49:01.125Z,14.57
2022-11-12T18:51:28.959Z,15.75
2022-11-12T18:53:56.647Z,14.90
2022-11-12T18:56:24.320Z,14.57
2022-11-12T18:58:52.078Z,14.00
2022-11-12T19:01:22.558Z,16.48
2022-11-12T19:03:54.615Z,13.88
2022-11-12T19:06:23.435Z,15.93
2022-11-12T19:08:51.897Z,15.65
2022-11-12T19:11:22.835Z,17.67
2022-11-12T19:13:54.735Z,17.70
2022-11-12T19:16:24.281Z,18.00
2022-11-12T19:18:53.343Z,15.18
2022-11-12T19:21:26.611Z,14.63
2022-11-12T19:23:56.000Z,17.92
2022-11-12T19:26:24.583Z,18.10
2022-11-12T19:28:52.240Z,14.38
2022-11-12T19:31:25.620Z,18.27
2022-11-12T19:33:53.686Z,15.68
2022-11-12T19:36:24.331Z,15.15
2022-11-12T19:38:56.753Z,15.05
2022-11-12T19:41:25.350Z,15.23
2022-11-12T19:43:53.889Z,15.70
2022-11-12T19:46:22.028Z,12.82
2022-11-12T19:48:50.118Z,14.45
2022-11-12T19:51:17.775Z,15.82
2022-11-12T19:53:45.650Z,13.93
2022-11-12T19:56:18.081Z,15.88
2022-11-12T19:58:47.203Z,14.93
2022-11-12T20:01:18.269Z,14.32
2022-11-12T20:03:46.279Z,15.10
2022-11-12T20:06:20.020Z,13.82
2022-11-12T20:08:48.257Z,14.63
2022-11-12T20:11:17.301Z,15.88
2022-11-12T20:13:44.899Z,15.40
2022-11-12T20:16:23.831Z,16.00
2022-11-12T20:18:56.887Z,13.45
2022-11-12T20:21:25.373Z,15.45
2022-11-12T20:23:53.183Z,14.98
2022-11-12T20:26:20.908Z,16.50
2022-11-12T20:28:48.835Z,12.25
2022-11-12T20:31:21.731Z,14.63
2022-11-12T20:33:51.523Z,12.82
2022-11-12T20:36:21.895Z,15.27
2022-11-12T20:38:54.529Z,13.07
2022-11-12T20:41:27.051Z,14.48
2022-11-12T20:43:56.213Z,12.35
2022-11-12T20:46:24.409Z,12.23
2022-11-12T20:48:52.392Z,14.00
2022-11-12T20:51:24.713Z,13.98
2022-11-12T20:54:00.407Z,13.77
2022-11-12T20:56:31.129Z,12.48
2022-11-12T20:59:00.254Z,12.95
2022-11-12T21:01:29.808Z,11.80
2022-11-12T21:03:58.542Z,12.25
2022-11-12T21:06:27.793Z,10.77
2022-11-12T21:08:57.991Z,10.95
2022-11-12T21:11:25.623Z,12.63
2022-11-12T21:13:53.332Z,11.52
2022-11-12T21:16:21.089Z,10.45
2022-11-12T21:18:48.836Z,11.45
2022-11-12T21:21:20.236Z,12.52
2022-11-12T21:23:50.927Z,11.00
2022-11-12T21:26:20.699Z,11.93
2022-11-12T21:28:54.037Z,10.63
2022-11-12T21:31:24.127Z,12.18
2022-11-12T21:34:01.262Z,10.95
2022-11-12T21:36:29.873Z,10.90
2022-11-12T21:38:57.658Z,9.75
2022-11-12T21:41:28.277Z,9.48
2022-11-12T21:43:56.285Z,9.07
2022-11-12T21:46:29.403Z,10.25
2022-11-12T21:48:58.541Z,9.35
2022-11-12T21:51:28.482Z,10.48
2022-11-12T21:54:03.908Z,9.07
2022-11-12T21:56:32.525Z,8.30
2022-11-12T21:59:05.092Z,11.30
2022-11-12T22:01:35.194Z,8.88
2022-11-12T22:04:07.887Z,8.65
2022-11-12T22:06:39.026Z,9.50
2022-11-12T22:09:07.407Z,11.73
2022-11-12T22:11:35.242Z,7.47
2022-11-12T22:14:03.274Z,7.55
2022-11-12T22:16:31.054Z,8.90
2022-11-12T22:19:00.467Z,9.57
2022-11-12T22:21:39.436Z,8.43
2022-11-12T22:24:08.249Z,8.73
2022-11-12T22:26:35.917Z,8.73
2022-11-12T22:29:03.659Z,8.35
2022-11-12T22:31:33.527Z,8.32
2022-11-12T22:34:03.608Z,7.47
2022-11-12T22:36:32.851Z,8.00
2022-11-12T22:39:00.542Z,9.20
2022-11-12T22:41:30.748Z,8.68
2022-11-12T22:44:01.252Z,7.62
2022-11-12T22:46:31.591Z,7.18
2022-11-12T22:49:00.231Z,9.13
2022-11-12T22:51:30.200Z,8.10
2022-11-12T22:54:04.066Z,7.43
2022-11-12T22:56:34.378Z,9.25
2022-11-12T22:59:06.307Z,7.95
2022-11-12T23:01:36.273Z,6.75
2022-11-12T23:04:06.261Z,8.63
2022-11-12T23:06:34.408Z,8.05
2022-11-12T23:09:02.717Z,7.50
2022-11-12T23:11:30.781Z,5.97
2022-11-12T23:13:58.545Z,7.07
2022-11-12T23:16:34.228Z,7.05
2022-11-12T23:19:01.981Z,7.00
2022-11-12T23:21:30.950Z,5.93
2022-11-12T23:24:00.073Z,7.03
2022-11-12T23:26:32.133Z,7.65
2022-11-12T23:29:00.289Z,8.43
2022-11-12T23:31:30.286Z,7.25
2022-11-12T23:34:00.128Z,6.80
2022-11-12T23:36:28.853Z,6.53
2022-11-12T23:38:57.915Z,7.07
2022-11-12T23:41:27.355Z,5.62
2022-11-12T23:43:56.159Z,6.62
2022-11-12T23:46:24.625Z,7.62
2022-11-12T23:48:52.677Z,7.22
2022-11-12T23:51:22.738Z,7.93
2022-11-12T23:53:50.853Z,6.82
2022-11-12T23:56:20.940Z,6.30
2022-11-12T23:58:48.955Z,6.00
